Time;durP1;ratioP1;P1;durP2;ratioP2;P2;SDS_P1;SDS_P2;PMS_P1;PMS_P2;Temp;Humidity;BMP_temperature;BMP_pressure;BME280_temperature;BME280_humidity;BME280_pressure;Samples;Min_cycle;Max_cycle;Signal;HPM_P1;HPM_P2
2022/06/03 00:00:06;;;;;;;1.03;1.00;;;;;;;15.13;48.89;99116.28;5089878;28;43644;-76
2022/06/03 00:03:25;;;;;;;1.10;1.00;;;;;;;15.11;49.03;99119.06;5089456;28;42589;-80
2022/06/03 00:06:10;;;;;;;0.93;0.93;;;;;;;15.06;49.73;99111.44;5033511;28;39067;-81
2022/06/03 00:09:13;;;;;;;0.87;0.87;;;;;;;15.07;49.45;99114.94;5074853;28;41652;-79
2022/06/03 00:12:07;;;;;;;0.90;0.90;;;;;;;15.03;49.55;99111.66;5084060;28;41771;-79
2022/06/03 00:14:52;;;;;;;2.13;1.00;;;;;;;15.00;49.34;99117.22;5090594;28;43178;-79
2022/06/03 00:17:43;;;;;;;0.90;0.90;;;;;;;14.96;49.58;99110.41;5089398;28;40205;-80
2022/06/03 00:20:24;;;;;;;1.50;1.23;;;;;;;14.91;49.39;99112.59;5090995;28;41925;-78
2022/06/03 00:23:38;;;;;;;0.90;0.90;;;;;;;14.88;49.71;99107.50;5074549;28;42284;-80
2022/06/03 00:26:34;;;;;;;1.00;0.90;;;;;;;14.87;50.13;99099.59;5089726;28;42400;-80
2022/06/03 00:29:17;;;;;;;1.07;1.00;;;;;;;14.83;49.37;99107.00;5091595;28;39077;-75
2022/06/03 00:32:03;;;;;;;0.80;0.80;;;;;;;14.80;49.64;99104.56;5089255;28;41804;-82
2022/06/03 00:35:17;;;;;;;1.20;1.10;;;;;;;14.77;49.75;99109.28;5090453;28;42640;-78
2022/06/03 00:37:50;;;;;;;1.07;0.87;;;;;;;14.62;49.73;99090.78;5066705;28;41221;-80
2022/06/03 00:40:36;;;;;;;1.20;1.10;;;;;;;14.66;49.77;99102.94;5074562;28;39200;-82
2022/06/03 00:43:19;;;;;;;0.93;0.93;;;;;;;14.63;49.22;99110.31;5091194;28;41825;-77
2022/06/03 00:46:34;;;;;;;1.07;0.93;;;;;;;14.57;49.35;99105.44;5090698;28;41675;-77
2022/06/03 00:49:27;;;;;;;0.80;0.80;;;;;;;14.52;49.23;99100.44;5013045;28;42155;-79
2022/06/03 00:52:26;;;;;;;1.77;0.80;;;;;;;14.47;50.17;99091.94;5073678;28;39970;-81
2022/06/03 00:55:20;;;;;;;1.03;1.03;;;;;;;14.41;51.20;99087.06;5041431;28;42217;-77
2022/06/03 00:58:25;;;;;;;2.47;1.30;;;;;;;14.41;51.16;99084.41;5074654;28;43078;-77
2022/06/03 01:01:02;;;;;;;1.33;1.10;;;;;;;14.38;51.70;99082.78;5090504;28;40903;-75
2022/06/03 01:03:41;;;;;;;1.30;1.20;;;;;;;14.38;52.80;99073.94;5090347;28;38961;-78
2022/06/03 01:06:29;;;;;;;1.30;1.20;;;;;;;14.40;53.03;99076.53;5088041;28;41884;-82
2022/06/03 01:09:14;;;;;;;1.20;1.10;;;;;;;14.38;52.72;99082.78;5091005;28;43839;-81
2022/06/03 01:12:10;;;;;;;1.13;1.10;;;;;;;14.38;53.16;99079.28;5090789;28;42270;-84
2022/06/03 01:14:54;;;;;;;0.93;0.93;;;;;;;14.38;53.58;99071.28;5077361;28;39068;-82
2022/06/03 01:17:34;;;;;;;1.80;1.17;;;;;;;14.41;53.39;99081.75;5094672;28;41859;-80
2022/06/03 01:20:14;;;;;;;1.67;1.17;;;;;;;14.35;53.83;99067.03;5093324;28;42983;-76
2022/06/03 01:23:13;;;;;;;2.10;1.27;;;;;;;14.46;54.19;99076.09;5091403;28;43053;-77
2022/06/03 01:26:22;;;;;;;1.80;1.10;;;;;;;14.47;53.99;99075.09;5077044;28;38927;-76
2022/06/03 01:29:25;;;;;;;1.27;1.17;;;;;;;14.47;53.98;99075.09;5091402;28;41685;-75
2022/06/03 01:32:29;;;;;;;1.40;1.30;;;;;;;14.46;54.23;99076.94;5092250;28;42655;-81
2022/06/03 01:35:18;;;;;;;1.20;1.10;;;;;;;14.45;53.97;99080.56;5077307;28;42307;-77
2022/06/03 01:37:51;;;;;;;1.30;1.20;;;;;;;14.45;54.41;99075.25;5092039;28;39896;-77
2022/06/03 01:40:47;;;;;;;1.33;1.23;;;;;;;14.45;54.61;99072.56;5094078;28;41727;-81
2022/06/03 01:43:49;;;;;;;1.10;1.10;;;;;;;14.45;54.54;99082.38;5059885;28;41809;-81
2022/06/03 01:46:26;;;;;;;1.60;1.40;;;;;;;14.44;54.75;99073.53;5076996;28;41110;-78
2022/06/03 01:49:12;;;;;;;0.83;0.83;;;;;;;14.45;54.74;99082.38;5093740;28;40217;-80
2022/06/03 01:52:11;;;;;;;1.47;1.37;;;;;;;14.38;54.73;99072.13;5077441;28;41284;-75
2022/06/03 01:55:21;;;;;;;1.27;1.17;;;;;;;14.41;54.58;99087.06;5092096;28;43466;-79
2022/06/03 01:58:10;;;;;;;0.93;0.93;;;;;;;14.38;54.71;99082.78;5093776;28;41284;-79
2022/06/03 02:00:41;;;;;;;1.60;1.50;;;;;;;14.35;54.72;99090.16;5094673;28;40214;-82
2022/06/03 02:03:52;;;;;;;1.10;1.10;;;;;;;14.33;55.24;99089.44;5076823;28;40793;-77
2022/06/03 02:07:06;;;;;;;1.27;1.17;;;;;;;14.31;55.21;99078.03;5076877;28;41612;-75
2022/06/03 02:10:18;;;;;;;1.10;1.07;;;;;;;14.27;55.70;99068.56;5093431;28;41142;-80
2022/06/03 02:13:07;;;;;;;1.20;1.20;;;;;;;14.24;55.01;99074.13;5065827;28;39911;-82
2022/06/03 02:16:05;;;;;;;1.07;1.00;;;;;;;14.19;54.72;99081.63;5093525;28;42769;-80
2022/06/03 02:19:00;;;;;;;1.20;1.10;;;;;;;14.17;56.07;99072.88;5076284;28;42670;-77
2022/06/03 02:21:53;;;;;;;1.70;1.60;;;;;;;14.13;56.04;99072.25;5091191;28;43198;-76
2022/06/03 02:24:58;;;;;;;2.80;1.63;;;;;;;14.10;55.83;99071.59;5092788;28;38921;-83
2022/06/03 02:27:46;;;;;;;1.60;1.40;;;;;;;14.05;56.07;99069.31;5063068;28;42138;-76
2022/06/03 02:30:39;;;;;;;1.47;1.30;;;;;;;14.02;55.48;99069.53;5092676;28;41813;-82
2022/06/03 02:33:34;;;;;;;1.30;1.20;;;;;;;14.00;56.07;99063.44;5076369;28;41962;-81
2022/06/03 02:36:37;;;;;;;1.50;1.40;;;;;;;13.96;56.31;99065.50;5091465;28;39917;-75
2022/06/03 02:39:21;;;;;;;1.50;1.40;;;;;;;13.94;56.08;99077.22;5093039;28;41468;-77
2022/06/03 02:42:25;;;;;;;1.50;1.40;;;;;;;13.87;56.61;99079.47;5090925;28;42932;-77
2022/06/03 02:45:19;;;;;;;1.30;1.20;;;;;;;13.87;56.89;99075.97;5092943;28;41522;-76
2022/06/03 02:48:20;;;;;;;1.60;1.50;;;;;;;13.83;56.70;99078.00;5075932;28;40239;-74
2022/06/03 02:51:13;;;;;;;1.33;1.20;;;;;;;13.80;56.43;99075.56;5093544;28;41690;-77
2022/06/03 02:54:28;;;;;;;1.30;1.20;;;;;;;13.76;57.28;99071.41;5089637;28;42891;-81
2022/06/03 02:57:30;;;;;;;1.50;1.30;;;;;;;13.72;57.01;99072.63;5065560;28;42247;-78
2022/06/03 03:00:16;;;;;;;1.70;1.60;;;;;;;13.68;56.87;99070.28;5051379;28;39569;-74
2022/06/03 03:03:04;;;;;;;1.27;1.20;;;;;;;13.69;56.91;99072.81;5089814;28;41642;-80
2022/06/03 03:05:50;;;;;;;1.37;1.13;;;;;;;13.68;56.59;99071.13;5092389;28;43657;-74
2022/06/03 03:09:03;;;;;;;1.27;1.17;;;;;;;13.67;56.74;99066.75;5076000;28;41127;-81
2022/06/03 03:12:15;;;;;;;1.40;1.30;;;;;;;13.65;57.11;99066.88;5014529;28;38855;-75
2022/06/03 03:15:08;;;;;;;1.20;1.20;;;;;;;13.62;56.81;99072.41;5015064;28;41603;-76
2022/06/03 03:18:10;;;;;;;1.67;1.20;;;;;;;13.60;56.70;99084.97;5074386;28;41575;-81
2022/06/03 03:21:16;;;;;;;1.30;1.20;;;;;;;13.57;56.59;99085.19;5075365;28;41075;-80
2022/06/03 03:24:20;;;;;;;1.30;1.20;;;;;;;13.57;57.38;99089.66;5092242;28;40001;-78
2022/06/03 03:26:55;;;;;;;1.37;1.27;;;;;;;13.54;56.73;99097.88;5065353;28;40695;-76
2022/06/03 03:29:48;;;;;;;1.50;1.40;;;;;;;13.53;56.69;99094.34;5091379;28;42821;-79
2022/06/03 03:32:26;;;;;;;1.03;1.00;;;;;;;13.54;56.85;99095.19;5090400;28;42186;-76
2022/06/03 03:35:36;;;;;;;1.37;1.30;;;;;;;13.53;57.12;99083.72;5091537;28;39193;-82
2022/06/03 03:38:41;;;;;;;1.73;1.20;;;;;;;13.55;56.68;99086.25;5073365;28;42635;-80
2022/06/03 03:41:42;;;;;;;1.50;1.40;;;;;;;13.56;56.98;99098.59;5092178;28;42002;-80
2022/06/03 03:44:41;;;;;;;1.10;1.00;;;;;;;13.56;57.17;99096.81;5068645;28;41274;-83
2022/06/03 03:47:44;;;;;;;1.30;1.20;;;;;;;13.58;56.70;99110.00;5075176;28;38908;-81
2022/06/03 03:50:40;;;;;;;1.50;1.40;;;;;;;13.60;56.87;99100.91;5091270;28;40905;-81
2022/06/03 03:53:41;;;;;;;1.30;1.20;;;;;;;13.64;56.70;99091.78;5092392;28;41837;-75
2022/06/03 03:56:31;;;;;;;1.60;1.50;;;;;;;13.69;56.50;99093.28;5092112;28;41205;-78
2022/06/03 03:59:46;;;;;;;1.90;1.20;;;;;;;13.75;56.73;99087.50;5075402;28;38846;-78
2022/06/03 04:02:56;;;;;;;1.53;1.43;;;;;;;13.80;56.11;99099.53;5091345;28;40489;-74
2022/06/03 04:05:51;;;;;;;2.10;1.73;;;;;;;13.87;56.47;99095.44;5089624;28;41745;-80
2022/06/03 04:08:47;;;;;;;1.40;1.30;;;;;;;13.93;56.57;99096.81;5074741;28;41120;-77
2022/06/03 04:11:48;;;;;;;1.33;1.27;;;;;;;14.01;56.58;99095.31;5091447;28;40168;-73
2022/06/03 04:14:54;;;;;;;2.10;1.20;;;;;;;14.10;56.08;99093.78;5074865;28;41019;-77
2022/06/03 04:17:45;;;;;;;1.67;1.20;;;;;;;14.20;55.89;99089.50;5092675;28;43864;-81
2022/06/03 04:20:52;;;;;;;2.30;1.50;;;;;;;14.31;55.97;99080.72;5091995;28;42420;-81
2022/06/03 04:23:52;;;;;;;1.27;1.17;;;;;;;14.41;55.21;99076.41;5074800;28;40296;-80
2022/06/03 04:26:50;;;;;;;2.03;1.60;;;;;;;14.49;55.97;99082.00;5094828;28;40586;-75
2022/06/03 04:29:50;;;;;;;2.03;1.40;;;;;;;14.62;55.54;99073.94;5056206;28;42845;-74
2022/06/03 04:32:57;;;;;;;2.40;1.73;;;;;;;14.75;55.54;99074.72;5036607;28;42111;-81
2022/06/03 04:36:09;;;;;;;1.40;1.30;;;;;;;14.90;55.19;99072.72;5091093;28;40592;-75
2022/06/03 04:39:31;;;;;;;2.27;1.30;;;;;;;15.08;55.23;99081.97;5091206;28;40703;-82
2022/06/03 04:42:50;;;;;;;1.63;1.53;;;;;;;15.24;54.71;99081.59;5091485;28;42235;-75
2022/06/03 04:46:02;;;;;;;1.40;1.30;;;;;;;15.39;54.46;99078.59;5091253;28;42443;-75
2022/06/03 04:49:24;;;;;;;1.43;1.33;;;;;;;15.59;54.32;99076.19;5091566;28;39709;-75
2022/06/03 04:52:35;;;;;;;1.37;1.27;;;;;;;15.80;53.91;99080.69;4984857;28;40254;-83
2022/06/03 04:55:41;;;;;;;1.27;1.07;;;;;;;15.99;53.73;99080.03;5091138;28;42918;-78
2022/06/03 04:58:54;;;;;;;1.40;1.30;;;;;;;16.13;53.22;99087.78;5091233;28;41488;-79
2022/06/03 05:01:58;;;;;;;1.40;1.23;;;;;;;16.31;52.63;99081.91;5090674;28;39948;-79
2022/06/03 05:05:06;;;;;;;1.30;1.20;;;;;;;16.47;53.18;99079.66;5089800;28;42817;-83
2022/06/03 05:08:15;;;;;;;1.43;1.33;;;;;;;16.60;52.71;99069.63;5091016;28;43057;-74
2022/06/03 05:11:33;;;;;;;1.40;1.10;;;;;;;16.82;52.24;99074.06;5027757;28;41179;-83
2022/06/03 05:14:41;;;;;;;1.90;1.70;;;;;;;17.04;52.12;99078.44;5074042;28;39060;-81
2022/06/03 05:17:38;;;;;;;1.30;1.20;;;;;;;17.21;51.50;99078.69;5057600;28;41932;-76
2022/06/03 05:20:44;;;;;;;1.63;1.53;;;;;;;17.41;50.89;99076.97;5047129;28;42668;-83
2022/06/03 05:23:46;;;;;;;1.30;1.20;;;;;;;17.61;50.89;99064.50;5090975;28;41308;-77
2022/06/03 05:27:01;;;;;;;1.20;1.20;;;;;;;17.75;50.01;99061.50;5090937;28;40147;-76
2022/06/03 05:30:03;;;;;;;4.03;1.53;;;;;;;17.81;49.61;99068.97;5065568;28;42662;-81
2022/06/03 05:33:13;;;;;;;2.47;1.40;;;;;;;17.93;49.17;99072.38;5090722;28;42718;-81
2022/06/03 05:36:07;;;;;;;1.50;1.30;;;;;;;18.02;49.52;99050.13;5090446;28;42328;-84
2022/06/03 05:38:56;;;;;;;1.67;1.20;;;;;;;18.16;49.43;99057.78;5090878;28;40090;-76
2022/06/03 05:44:50;;;;;;;1.30;1.30;;;;;;;18.44;48.11;99061.47;5081199;28;42969;-76
2022/06/03 05:47:22;;;;;;;2.00;1.30;;;;;;;18.52;47.92;99058.94;5086822;28;42032;-81
2022/06/03 05:50:00;;;;;;;1.50;1.40;;;;;;;18.67;47.89;99070.09;5086648;28;40120;-74
2022/06/03 05:52:57;;;;;;;2.00;1.30;;;;;;;18.82;47.60;99068.69;5088337;28;41881;-78
2022/06/03 05:55:37;;;;;;;1.20;1.13;;;;;;;18.93;47.87;99062.31;5089328;28;43554;-77
2022/06/03 05:58:20;;;;;;;1.77;1.33;;;;;;;19.05;47.48;99060.31;5123452;27;42940;-79
2022/06/03 06:01:07;;;;;;;1.10;1.10;;;;;;;19.13;47.69;99057.78;5093699;28;40847;-81
2022/06/03 06:03:43;;;;;;;1.30;1.20;;;;;;;19.14;46.97;99064.84;5076453;28;40582;-79
2022/06/03 06:06:23;;;;;;;1.30;1.20;;;;;;;19.18;46.65;99069.75;5076024;28;42069;-78
2022/06/03 06:09:02;;;;;;;1.27;1.17;;;;;;;19.28;47.09;99067.91;5091039;28;42234;-73
2022/06/03 06:11:47;;;;;;;1.30;1.20;;;;;;;19.39;47.08;99053.47;5075539;28;39210;-75
2022/06/03 06:14:32;;;;;;;1.50;1.40;;;;;;;19.45;47.46;99036.75;5091055;28;42555;-75
2022/06/03 06:17:11;;;;;;;2.10;1.20;;;;;;;19.63;47.18;99053.81;5093122;28;42145;-75
2022/06/03 06:19:49;;;;;;;1.30;1.17;;;;;;;19.75;47.06;99054.47;5092707;28;42672;-76
2022/06/03 06:22:27;;;;;;;1.23;1.23;;;;;;;19.87;46.82;99053.28;5091160;28;40146;-73
2022/06/03 06:25:09;;;;;;;1.27;1.17;;;;;;;19.89;46.84;99037.00;5092038;28;41912;-74
2022/06/03 06:28:00;;;;;;;1.50;1.40;;;;;;;20.10;46.12;99059.09;5091077;28;43717;-81
2022/06/03 06:31:00;;;;;;;6.50;1.50;;;;;;;20.25;44.92;99073.72;5092029;28;41454;-78
2022/06/03 06:33:47;;;;;;;1.27;1.27;;;;;;;20.37;44.72;99075.22;5075698;28;39049;-71
2022/06/03 06:36:47;;;;;;;2.67;1.33;;;;;;;20.53;44.60;99081.72;5088957;28;41765;-74
2022/06/03 06:39:29;;;;;;;1.50;1.40;;;;;;;20.73;44.04;99083.28;5093530;28;43556;-76
2022/06/03 06:42:10;;;;;;;1.20;1.10;;;;;;;21.03;43.64;99087.38;5092341;28;41135;-77
2022/06/03 06:44:48;;;;;;;1.40;1.30;;;;;;;21.21;42.80;99092.78;5091170;28;39675;-75
2022/06/03 06:47:21;;;;;;;1.37;1.30;;;;;;;21.27;41.96;99097.53;5092014;28;40604;-72
2022/06/03 06:50:03;;;;;;;1.50;1.40;;;;;;;21.47;43.02;99094.50;5091096;28;44038;-74
2022/06/03 06:52:44;;;;;;;1.40;1.10;;;;;;;21.65;42.60;99091.72;5088900;28;42318;-75
2022/06/03 06:55:20;;;;;;;1.30;1.20;;;;;;;21.75;42.00;99092.47;5071234;28;39241;-77
2022/06/03 06:57:50;;;;;;;1.50;1.40;;;;;;;21.93;41.71;99081.56;5055047;28;40808;-77
2022/06/03 07:00:24;;;;;;;1.03;1.03;;;;;;;22.18;41.53;99088.78;5080032;28;41865;-77
2022/06/03 07:02:57;;;;;;;1.13;1.00;;;;;;;22.46;41.50;99075.03;5088941;28;41973;-73
2022/06/03 07:05:34;;;;;;;1.80;1.27;;;;;;;22.69;40.61;99086.00;5092475;28;39988;-74
2022/06/03 07:08:09;;;;;;;1.33;1.20;;;;;;;22.97;40.70;99089.28;5086792;28;42676;-74
2022/06/03 07:10:44;;;;;;;1.30;1.30;;;;;;;23.27;40.22;99091.28;5092243;28;42989;-78
2022/06/03 07:13:20;;;;;;;1.00;1.00;;;;;;;23.42;39.72;99089.56;5054899;28;43214;-79
2022/06/03 07:15:58;;;;;;;1.10;1.10;;;;;;;23.62;39.92;99087.34;5085631;28;40305;-78
2022/06/03 07:21:32;;;;;;;1.30;1.20;;;;;;;23.99;38.71;99082.13;5092680;28;43696;-76
2022/06/03 07:24:07;;;;;;;1.50;1.40;;;;;;;24.28;38.78;99080.69;5089606;28;43320;-78
2022/06/03 07:26:37;;;;;;;1.20;1.10;;;;;;;24.75;37.66;99079.69;5088470;28;39900;-78
2022/06/03 07:29:15;;;;;;;1.30;1.20;;;;;;;25.48;35.89;99073.66;5092797;28;41618;-81
2022/06/03 07:31:48;;;;;;;1.77;1.33;;;;;;;26.34;34.67;99103.69;5068656;28;42980;-84
2022/06/03 07:34:20;;;;;;;1.30;1.20;;;;;;;26.95;33.60;99103.38;5069289;28;43206;-81
2022/06/03 07:36:55;;;;;;;1.40;1.30;;;;;;;27.28;33.25;99096.34;5074521;28;38672;-76
2022/06/03 07:39:33;;;;;;;1.30;1.20;;;;;;;28.12;32.18;99079.94;5091376;28;42147;-80
2022/06/03 07:42:08;;;;;;;1.20;1.20;;;;;;;29.44;30.06;99097.44;5089165;28;42930;-77
2022/06/03 07:44:45;;;;;;;1.50;1.33;;;;;;;30.63;29.71;99108.94;5100390;28;40865;-75
2022/06/03 07:47:15;;;;;;;1.50;1.40;;;;;;;31.61;28.42;99109.28;5086891;28;38470;-74
2022/06/03 07:49:47;;;;;;;1.60;1.50;;;;;;;31.83;27.46;99117.94;5101539;28;44083;-75
2022/06/03 07:52:26;;;;;;;1.50;1.40;;;;;;;31.48;27.41;99111.28;5100897;28;43824;-77
2022/06/03 07:54:57;;;;;;;1.77;1.30;;;;;;;31.03;27.84;99101.28;5103002;28;41679;-78
2022/06/03 07:57:28;;;;;;;1.50;1.40;;;;;;;31.16;27.33;99099.56;5117646;28;39108;-82
2022/06/03 08:00:01;;;;;;;1.27;1.27;;;;;;;31.82;27.41;99102.56;5071359;28;40851;-79
2022/06/03 08:02:29;;;;;;;2.50;1.53;;;;;;;32.77;25.53;99097.41;5067789;28;42791;-83
2022/06/03 08:05:06;;;;;;;3.13;1.67;;;;;;;34.15;24.96;99094.22;5076556;28;42188;-78
2022/06/03 08:13:11;;;;;;;1.50;1.40;;;;;;;36.89;22.12;99093.19;5090549;28;43597;-78
2022/06/03 08:15:42;;;;;;;1.63;1.47;;;;;;;36.87;22.05;99079.66;5073223;28;43479;-78
2022/06/03 08:18:17;;;;;;;2.60;1.70;;;;;;;37.32;21.31;99076.50;5090882;28;39055;-76
2022/06/03 08:20:51;;;;;;;1.48;1.38;;;;;;;38.30;20.22;99087.94;5090089;28;42025;-86
2022/06/03 08:23:21;;;;;;;1.48;1.38;;;;;;;38.82;20.16;99084.25;5089106;28;44333;-77
2022/06/03 08:25:52;;;;;;;1.50;1.40;;;;;;;38.79;19.97;99080.06;5094283;28;42287;-82
2022/06/03 08:28:28;;;;;;;1.60;1.50;;;;;;;38.56;20.32;99080.59;5068971;28;39804;-83
2022/06/03 08:31:04;;;;;;;2.53;1.67;;;;;;;38.25;20.33;99067.69;5063827;28;41162;-81
2022/06/03 08:33:41;;;;;;;1.50;1.40;;;;;;;38.19;21.16;99068.78;5071023;28;41823;-80
2022/06/03 08:36:14;;;;;;;1.90;1.80;;;;;;;38.08;20.41;99085.31;5083529;28;43145;-78
2022/06/03 08:38:48;;;;;;;1.15;1.10;;;;;;;38.18;21.02;99059.66;5073610;28;40801;-84
2022/06/03 08:41:35;;;;;;;1.85;1.75;;;;;;;38.54;20.18;99060.63;5073789;28;42093;-83
2022/06/03 08:44:22;;;;;;;1.20;1.20;;;;;;;39.22;20.11;99055.75;5089746;28;42790;-81
2022/06/03 08:46:57;;;;;;;1.40;1.30;;;;;;;39.90;20.06;99061.81;5090804;28;42391;-81
2022/06/03 08:49:30;;;;;;;1.90;1.80;;;;;;;40.35;18.70;99071.91;5072646;28;40449;-85
2022/06/03 08:52:05;;;;;;;2.88;2.00;;;;;;;40.43;18.79;99059.41;5090899;28;41796;-84
2022/06/03 08:54:38;;;;;;;1.75;1.55;;;;;;;40.19;18.88;99073.88;5090307;28;42146;-85
2022/06/03 08:57:12;;;;;;;2.25;1.60;;;;;;;39.17;19.16;99074.31;5090890;28;41172;-82
2022/06/03 08:59:42;;;;;;;1.90;1.80;;;;;;;38.61;20.58;99050.13;5090506;28;38496;-86
2022/06/03 09:02:20;;;;;;;1.90;1.80;;;;;;;38.44;20.10;99057.81;5091928;28;41533;-80
2022/06/03 09:04:59;;;;;;;2.80;1.90;;;;;;;38.25;20.49;99045.56;5088823;28;42463;-80
2022/06/03 09:07:35;;;;;;;2.27;1.97;;;;;;;38.70;20.89;99029.09;5087404;28;42373;-82
2022/06/03 09:10:12;;;;;;;2.40;1.53;;;;;;;39.59;20.14;99038.81;5090403;28;38953;-88
2022/06/03 09:12:46;;;;;;;1.57;1.47;;;;;;;39.66;19.86;99021.91;5090140;28;43299;-81
2022/06/03 09:15:21;;;;;;;1.80;1.70;;;;;;;39.25;20.22;99037.75;5073149;28;41995;-81
2022/06/03 09:17:57;;;;;;;2.30;1.87;;;;;;;39.29;20.17;99027.78;5073207;28;41337;-81
2022/06/03 09:20:30;;;;;;;1.80;1.70;;;;;;;39.72;19.24;99037.41;5090224;28;38994;-82
2022/06/03 09:23:01;;;;;;;1.73;1.60;;;;;;;40.26;19.13;99023.63;5073425;28;42675;-84
2022/06/03 09:25:32;;;;;;;2.03;1.80;;;;;;;40.43;18.38;99017.75;5089753;28;43110;-86
2022/06/03 09:28:04;;;;;;;1.80;1.70;;;;;;;39.68;19.61;98991.97;5090338;28;42566;-83
2022/06/03 09:30:38;;;;;;;4.20;1.80;;;;;;;38.98;20.59;98993.69;5089831;28;39670;-82
2022/06/03 09:33:11;;;;;;;2.07;1.87;;;;;;;39.10;20.45;99008.09;5092503;28;42134;-79
2022/06/03 09:35:42;;;;;;;1.70;1.60;;;;;;;39.27;20.12;99007.81;5090996;28;42980;-76
2022/06/03 09:38:11;;;;;;;2.17;1.93;;;;;;;39.19;20.52;99003.69;5093720;28;42243;-81
2022/06/03 09:40:43;;;;;;;2.00;1.90;;;;;;;39.41;20.26;98987.59;5094199;28;40203;-82
2022/06/03 09:43:18;;;;;;;1.83;1.73;;;;;;;40.13;20.20;98991.78;5093936;28;40629;-86
2022/06/03 09:45:50;;;;;;;1.92;1.80;;;;;;;41.04;18.87;98970.09;5076478;28;41731;-82
2022/06/03 09:48:22;;;;;;;2.03;1.80;;;;;;;42.04;18.19;99011.88;5077085;28;42506;-81
2022/06/03 09:50:53;;;;;;;1.88;1.75;;;;;;;42.69;17.68;99000.97;5092564;28;39077;-83
2022/06/03 09:53:26;;;;;;;1.60;1.50;;;;;;;43.79;17.32;98984.53;5076598;28;42949;-84
2022/06/03 09:55:57;;;;;;;1.90;1.80;;;;;;;44.27;16.91;98996.91;5092746;28;43211;-76
2022/06/03 09:58:30;;;;;;;2.00;1.80;;;;;;;43.80;17.09;98991.78;5093960;28;41835;-75
2022/06/03 10:00:59;;;;;;;2.22;1.98;;;;;;;42.66;17.91;99001.56;5091554;28;39771;-77
2022/06/03 10:03:29;;;;;;;1.73;1.63;;;;;;;41.38;19.08;98975.63;5093067;28;40640;-83
2022/06/03 10:05:59;;;;;;;1.88;1.77;;;;;;;40.41;19.21;98979.16;5092202;28;42829;-76
2022/06/03 10:12:48;;;;;;;2.72;1.92;;;;;;;39.27;20.74;98956.00;5092481;28;43270;-79
2022/06/03 10:14:04;;;;;;;3.67;2.00;;;;;;;38.18;21.61;98959.25;5090207;28;41780;-78
2022/06/03 10:16:32;;;;;;;1.95;1.85;;;;;;;38.19;21.75;98947.91;5091891;28;45350;-75
2022/06/03 10:19:02;;;;;;;1.95;1.85;;;;;;;38.36;21.54;98950.41;5094059;28;42894;-84
2022/06/03 10:21:33;;;;;;;1.95;1.83;;;;;;;38.45;22.17;98941.28;5092569;28;40018;-76
2022/06/03 10:24:04;;;;;;;3.22;1.85;;;;;;;38.51;22.06;98933.81;5075934;28;40749;-77
2022/06/03 10:26:38;;;;;;;2.15;1.95;;;;;;;38.29;21.80;98939.63;5071553;28;41973;-81
2022/06/03 10:29:09;;;;;;;2.35;2.03;;;;;;;38.38;21.88;98942.66;5070755;28;43572;-79
2022/06/03 10:31:37;;;;;;;2.38;2.10;;;;;;;38.22;22.35;98918.84;5089692;28;40161;-79
2022/06/03 10:34:12;;;;;;;1.85;1.73;;;;;;;38.36;22.12;98947.63;5092943;28;42593;-79
2022/06/03 10:36:42;;;;;;;1.90;1.80;;;;;;;38.26;22.94;98919.97;5091917;28;43133;-81
2022/06/03 10:39:15;;;;;;;2.00;1.90;;;;;;;38.32;23.53;98930.78;5092773;28;41721;-84
2022/06/03 10:41:47;;;;;;;2.78;2.08;;;;;;;38.28;22.59;98928.81;5092595;28;39910;-85
2022/06/03 10:44:17;;;;;;;2.00;1.90;;;;;;;38.02;24.31;98908.53;5092345;28;41315;-80
2022/06/03 10:46:56;;;;;;;2.45;2.20;;;;;;;37.60;23.10;98905.88;5074929;28;42964;-83
2022/06/03 10:49:27;;;;;;;2.23;1.80;;;;;;;37.25;23.95;98904.59;5090964;28;42280;-80
2022/06/03 11:03:06;;;;;;;2.50;2.30;;;;;;;36.74;25.22;98861.16;5089545;28;40001;-78
2022/06/03 11:05:38;;;;;;;2.07;1.97;;;;;;;36.64;25.65;98854.47;5091363;28;43638;-78
2022/06/03 11:08:09;;;;;;;2.40;1.83;;;;;;;36.59;26.92;98845.34;5089239;28;43078;-79
2022/06/03 11:10:41;;;;;;;2.90;2.10;;;;;;;36.57;24.97;98844.75;5091385;28;40998;-83
2022/06/03 11:13:12;;;;;;;2.20;2.00;;;;;;;36.71;26.72;98837.72;5092261;28;38645;-78
2022/06/03 11:15:42;;;;;;;2.20;2.10;;;;;;;36.98;25.07;98837.59;5074242;28;41843;-75
2022/06/03 11:18:19;;;;;;;2.37;1.90;;;;;;;37.08;25.66;98832.13;5091998;28;43698;-74
2022/06/03 11:20:50;;;;;;;2.27;2.10;;;;;;;36.99;24.37;98844.78;5091025;28;41269;-77
2022/06/03 11:23:19;;;;;;;2.43;2.20;;;;;;;37.07;24.91;98846.22;5090080;28;40500;-77
2022/06/03 11:25:49;;;;;;;3.57;1.80;;;;;;;37.06;25.22;98850.91;5091265;28;40812;-82
2022/06/03 11:28:22;;;;;;;1.87;1.70;;;;;;;37.19;24.15;98855.16;5092357;28;42529;-80
2022/06/03 11:30:53;;;;;;;1.98;1.88;;;;;;;37.69;25.29;98855.38;5088055;28;42191;-80
2022/06/03 11:33:26;;;;;;;1.97;1.87;;;;;;;37.90;24.20;98850.72;5075131;28;39073;-84
2022/06/03 11:36:01;;;;;;;1.80;1.70;;;;;;;38.12;23.20;98858.78;5088928;28;42235;-84
2022/06/03 11:38:33;;;;;;;1.83;1.73;;;;;;;38.46;24.25;98853.53;5074989;28;42813;-77
2022/06/03 11:41:06;;;;;;;2.08;1.98;;;;;;;38.78;22.70;98861.59;5088647;28;42258;-81
2022/06/03 11:43:41;;;;;;;1.70;1.60;;;;;;;39.08;21.94;98856.00;5089860;28;40910;-78
2022/06/03 11:46:13;;;;;;;2.55;2.25;;;;;;;39.83;21.94;98867.06;5088946;28;42178;-79
2022/06/03 11:48:43;;;;;;;1.85;1.75;;;;;;;40.59;21.31;98877.69;5091313;28;41532;-81
2022/06/03 11:51:14;;;;;;;1.75;1.65;;;;;;;41.60;20.17;98887.78;5091942;28;41481;-82
2022/06/03 11:53:47;;;;;;;1.67;1.58;;;;;;;41.71;20.68;98880.13;5069659;28;41162;-80
2022/06/03 11:56:18;;;;;;;2.03;1.92;;;;;;;42.23;21.14;98876.34;5084345;28;42581;-89
2022/06/03 11:58:59;;;;;;;1.90;1.80;;;;;;;42.76;19.48;98886.34;5108309;28;42795;-83
2022/06/03 12:01:38;;;;;;;1.60;1.50;;;;;;;43.31;19.04;98873.38;5090515;28;43894;-81
2022/06/03 12:04:15;;;;;;;1.70;1.60;;;;;;;43.82;17.79;98894.63;5091366;28;40264;-84
2022/06/03 12:06:55;;;;;;;2.15;1.75;;;;;;;43.87;17.99;98875.00;5073879;28;42616;-81
2022/06/03 12:09:33;;;;;;;1.85;1.75;;;;;;;44.11;18.29;98875.56;5088029;28;43546;-80
2022/06/03 12:14:58;;;;;;;1.90;1.80;;;;;;;45.47;17.55;98878.75;5088606;28;40728;-80
2022/06/03 12:17:30;;;;;;;1.88;1.77;;;;;;;45.96;15.90;98897.19;5090758;28;40945;-83
2022/06/03 12:19:58;;;;;;;2.33;2.10;;;;;;;46.59;15.78;98880.88;5085762;28;41790;-78
2022/06/03 12:22:42;;;;;;;2.03;1.80;;;;;;;46.89;15.37;98867.78;5091502;28;43029;-82
2022/06/03 12:25:43;;;;;;;2.17;1.70;;;;;;;46.88;15.82;98864.16;5087260;28;40580;-87
2022/06/03 12:28:20;;;;;;;2.25;1.80;;;;;;;47.10;15.74;98858.38;5086728;28;42316;-84
2022/06/03 12:30:51;;;;;;;2.17;1.98;;;;;;;47.33;15.14;98855.28;5089133;28;41689;-78
2022/06/03 12:33:33;;;;;;;1.75;1.65;;;;;;;48.19;15.89;98844.34;5089553;28;40904;-80
2022/06/03 12:36:07;;;;;;;2.00;1.77;;;;;;;48.85;14.36;98849.16;5088459;28;39899;-79
2022/06/03 12:38:43;;;;;;;1.60;1.50;;;;;;;48.95;14.23;98845.91;5085039;28;40871;-78
2022/06/03 12:41:11;;;;;;;1.67;1.58;;;;;;;49.11;14.06;98841.22;5084309;28;43076;-81
2022/06/03 12:44:00;;;;;;;1.92;1.50;;;;;;;48.98;13.58;98856.44;5090969;28;43040;-83
2022/06/03 12:46:38;;;;;;;2.40;1.60;;;;;;;48.81;13.64;98848.22;5088642;28;39040;-81
2022/06/03 12:49:18;;;;;;;2.53;1.45;;;;;;;48.40;14.15;98838.69;5086284;28;42173;-82
2022/06/03 12:52:03;;;;;;;1.65;1.55;;;;;;;48.00;14.27;98834.72;5070155;28;41912;-77
2022/06/03 12:54:35;;;;;;;1.77;1.67;;;;;;;47.97;14.75;98838.25;5072291;28;41453;-83
2022/06/03 12:57:09;;;;;;;2.00;1.90;;;;;;;47.77;14.08;98837.88;5072612;28;39200;-82
2022/06/03 12:59:46;;;;;;;1.75;1.65;;;;;;;47.63;14.07;98834.47;5086917;28;41584;-83
2022/06/03 13:02:18;;;;;;;1.98;1.80;;;;;;;47.86;14.54;98835.81;5086185;28;42774;-82
2022/06/03 13:05:03;;;;;;;2.35;1.85;;;;;;;47.79;14.43;98824.31;5071593;28;42102;-79
2022/06/03 13:07:37;;;;;;;1.60;1.50;;;;;;;47.06;14.97;98818.13;5093352;28;40879;-79
2022/06/03 13:10:31;;;;;;;2.50;2.03;;;;;;;45.92;15.43;98805.78;5088655;28;41835;-80
2022/06/03 13:13:24;;;;;;;1.75;1.65;;;;;;;45.23;16.89;98794.44;5088766;28;43420;-80
2022/06/03 13:15:52;;;;;;;1.95;1.85;;;;;;;44.85;16.44;98783.75;5087944;28;42090;-81
2022/06/03 13:18:45;;;;;;;1.80;1.70;;;;;;;44.59;17.23;98783.59;5091926;28;39595;-83
2022/06/03 13:21:19;;;;;;;1.80;1.70;;;;;;;44.55;17.35;98790.13;5067433;28;42333;-83
2022/06/03 13:24:20;;;;;;;2.17;1.95;;;;;;;44.81;17.43;98784.72;5090258;28;43565;-82